logo
Search for airport 
image banner adimage banner adimage banner ad
image banner ad

OTBK - Al Khor

Located in Al Khor, Qatar

ICAO - OTBK, IATA -

Data provided by Airmate  

General information

Coordinates: N25°37'46" E51°30'24"
Elevation is 6 feet MSL.
 
View others Airports in Al Khawr Municipality

Operational data

Special qualification required
Current time UTC:
Current local time:
Weather at : OTHH - Hamad Intl ( 41 km )
TAF: TAF OTHH 241707Z 2418/2524 10006KT CAVOK TEMPO 2420/2504 VRB02KT PROB30 TEMPO 2501/2504 04004KT 5000 HZ TEMPO 2504/2507 34009KT BECMG 2507/2509 04010KT
View NOTAMs / SUP AIP / TFR affecting this airport [VIEW]
Communications frequencies: [VIEW]

Runways:

Airport contact information

Address: Al Khor Qatar

Satellite view of OTBK